Home > Products > Valid Products > TAF

000
FTUS43 KDLH 272200 AAB
TAFBRD
TAF AMD
KBRD 272202Z 2722/2818 30007KT P6SM VCTS SCT070CB
     FM280100 VRB03KT P6SM SCT090
     FM281300 14007KT P6SM BKN070
     FM281600 18011G18KT P6SM VCSH OVC060=



000
FTUS43 KDLH 272100 AAB
TAFHYR
TAF AMD
KHYR 272119Z 2721/2818 25008G14KT P6SM VCTS BKN060CB
      TEMPO 2722/2723 VRB30KT 5SM -TSRA OVC050CB
     FM280100 VRB03KT P6SM SCT080
     FM280900 00000KT 6SM BR SKC
     FM281300 14005KT P6SM FEW070
     FM281600 18009KT P6SM SCT060=



000
FTUS43 KDLH 272100 AAA
TAFINL
TAF AMD
KINL 272105Z 2721/2818 31010G15KT P6SM FEW060
     FM280000 VRB04KT P6SM SKC
     FM281300 13008KT P6SM BKN070=



000
FTUS43 KDLH 272100 AAA
TAFINL
TAF AMD
KINL 272105Z 2721/2818 31010G15KT P6SM FEW060
     FM280000 VRB04KT P6SM SKC
     FM281300 13008KT P6SM BKN070=



000
FTUS43 KDLH 272100 AAA
TAFBRD
TAF AMD
KBRD 272103Z 2721/2818 30007KT P6SM FEW070
     FM280100 VRB03KT P6SM SKC
     FM281300 14007KT P6SM BKN070
     FM281600 18011G18KT P6SM VCSH OVC060=



000
FTUS43 KDLH 272100 AAA
TAFHYR
TAF AMD
KHYR 272101Z 2721/2818 25008G14KT P6SM VCTS BKN060CB
     FM280100 VRB03KT P6SM FEW050
     FM280900 00000KT 6SM BR SKC
     FM281300 14005KT P6SM FEW070
     FM281600 18009KT P6SM SCT060=



000
FTUS43 KDLH 271700
TAFINL
TAF
KINL 271725Z 2718/2818 33010G15KT P6SM FEW150
     FM280000 VRB04KT P6SM SKC
     FM281300 13008KT P6SM BKN070=



000
FTUS43 KDLH 271700
TAFBRD
TAF
KBRD 271725Z 2718/2818 30008G14KT P6SM FEW150
     FM280100 VRB03KT P6SM SKC
     FM281300 14007KT P6SM BKN070
     FM281600 18011G18KT P6SM VCSH OVC060=



000
FTUS43 KDLH 271700
TAFHYR
TAF
KHYR 271725Z 2718/2818 25009KT P6SM FEW150
     FM272100 29008G14KT P6SM VCTS BKN070CB
     FM280100 VRB03KT P6SM FEW050
     FM280900 00000KT 6SM BR SKC
     FM281300 14005KT P6SM FEW070
     FM281600 18009KT P6SM SCT060=



000
FTUS43 KDLH 271700
TAFDLH
TAF
KDLH 271725Z 2718/2818 29009G13KT P6SM FEW150
     FM271900 31012G20KT P6SM VCTS SCT060CB
     FM280100 VRB03KT P6SM FEW070
     FM280800 07006KT 6SM BR SCT009
     FM281200 11011KT P6SM SCT070=



000
FTUS43 KDLH 271400 AAA
TAFBRD
TAF AMD
KBRD 271429Z 2714/2812 28006KT P6SM SCT080
     FM271900 30008G14KT P6SM SCT050
     FM280200 VRB03KT P6SM SKC
     FM280800 12006KT P6SM VCSH OVC060=



000
FTUS43 KDLH 271300 AAA
TAFHYR
TAF AMD
KHYR 271313Z 2713/2812 20006KT P6SM SCT150
     FM271800 26009KT P6SM SCT060
     FM272100 29008G14KT P6SM VCTS BKN070CB
     FM280400 VRB03KT P6SM FEW050
     FM280900 00000KT 3SM BR SKC=



000
FTUS43 KDLH 271300 AAA
TAFDLH
TAF AMD
KDLH 271300Z 2713/2812 30009G13KT P6SM FEW120
     FM271900 31012G20KT P6SM VCTS SCT060CB
     FM280400 VRB03KT P6SM FEW050
     FM280800 05009G12KT 5SM BR SCT009=



000
FTUS43 KDLH 271100 RRA
TAFINL
TAF
KINL 271154Z 2712/2812 00000KT P6SM SKC
     FM271700 31010G15KT P6SM SCT060
     FM272000 34004KT P6SM SKC
     FM280900 14008KT P6SM SCT070 BKN200=



000
FTUS43 KDLH 271100 RRA
TAFHYR
TAF
KHYR 271154Z 2712/2812 22004KT P6SM SCT004 OVC080
      TEMPO 2712/2715 BKN006
     FM271800 26009KT P6SM SCT060
     FM272100 29008G14KT P6SM VCTS BKN070CB
     FM280400 VRB03KT P6SM FEW050
     FM280900 00000KT 3SM BR SKC=



000
FTUS43 KDLH 271100 RRA
TAFBRD
TAF
KBRD 271154Z 2712/2812 VRB03KT P6SM SCT080
      TEMPO 2712/2713 2SM BR
     FM271900 30008G14KT P6SM SCT050
     FM280200 VRB03KT P6SM SKC
     FM280800 12006KT P6SM VCSH OVC060=



000
FTUS43 KDLH 271100 RRA
TAFDLH
TAF
KDLH 271154Z 2712/2812 28008KT P6SM SCT090
      TEMPO 2712/2713 5SM BR SCT007
     FM271400 30009G13KT P6SM FEW070
     FM271900 31012G20KT P6SM VCTS SCT060CB
     FM280400 VRB03KT P6SM FEW050
     FM280800 05009G12KT 5SM BR SCT009=



000
FTUS43 KDLH 270700 AAE
TAFHYR
TAF AMD
KHYR 270722Z 2707/2806 VRB05KT P6SM VCSH SCT004 OVC080
      TEMPO 2707/2711 1SM BR BKN004
     FM271400 VRB05KT P6SM BKN015
     FM271800 28006KT P6SM SCT060
     FM272200 30006G14KT P6SM VCTS SCT070CB
     FM280200 VRB04KT P6SM VCSH SCT080=



000
FTUS43 KDLH 270700 AAD
TAFHYR
TAF AMD
KHYR 270709Z 2707/2806 VRB05KT P6SM VCSH SCT004 OVC080
      TEMPO 2708/2712 1SM BR BKN004
     FM271400 VRB05KT P6SM BKN015
     FM271800 28006KT P6SM SCT060
     FM272200 30006G14KT P6SM VCTS SCT070CB
     FM280200 VRB04KT P6SM VCSH SCT080=



000
FTUS43 KDLH 270600 AAC
TAFHYR
TAF AMD
KHYR 270659Z 2707/2806 VRB05KT P6SM VCSH SCT004 BKN040
      TEMPO 2708/2712 1SM BR BKN004
     FM271400 VRB05KT P6SM BKN015
     FM271800 28006KT P6SM SCT060
     FM272200 30006G14KT P6SM VCTS SCT070CB
     FM280200 VRB04KT P6SM VCSH SCT080=



000
FTUS43 KDLH 270600 AAC
TAFHYR
TAF AMD
KHYR 270659Z 2707/2806 VRB05KT P6SM VCSH SCT004 BKN040
      TEMPO 2708/2712 1SM BR BKN004
     FM271400 VRB05KT P6SM BKN015
     FM271800 28006KT P6SM SCT060
     FM272200 30006G14KT P6SM VCTS SCT070CB
     FM280200 VRB04KT P6SM VCSH SCT080=



000
FTUS43 KDLH 270600 AAB
TAFHYR
TAF AMD
KHYR 270621Z 2706/2806 VRB05KT P6SM VCSH SCT004 BKN040
      TEMPO 2708/2712 1SM BR OVC004
     FM271400 VRB05KT P6SM BKN015
     FM271800 28006KT P6SM SCT060
     FM272200 30006G14KT P6SM VCTS SCT070CB
     FM280200 VRB04KT P6SM VCSH SCT080=



000
FTUS43 KDLH 270600 AAB
TAFHYR
TAF AMD
KHYR 270621Z 2706/2806 VRB05KT P6SM VCSH SCT004 BKN040
      TEMPO 2708/2712 1SM BR OVC004
     FM271400 VRB05KT P6SM BKN015
     FM271800 28006KT P6SM SCT060
     FM272200 30006G14KT P6SM VCTS SCT070CB
     FM280200 VRB04KT P6SM VCSH SCT080=



000
FTUS43 KDLH 270600 AAA
TAFHYR
TAF AMD
KHYR 270620Z 2706/2806 VRB05KT P6SM VCSH BKN008 OVC018
      TEMPO 2708/2712 1SM BR OVC002
     FM271400 VRB05KT P6SM BKN015
     FM271800 28006KT P6SM SCT060
     FM272200 30006G14KT P6SM VCTS SCT070CB
     FM280200 VRB04KT P6SM VCSH SCT080=



000
FTUS43 KDLH 270600 AAA
TAFHYR
TAF AMD
KHYR 270620Z 2706/2806 VRB05KT P6SM VCSH BKN008 OVC018
      TEMPO 2708/2712 1SM BR OVC002
     FM271400 VRB05KT P6SM BKN015
     FM271800 28006KT P6SM SCT060
     FM272200 30006G14KT P6SM VCTS SCT070CB
     FM280200 VRB04KT P6SM VCSH SCT080=



000
FTUS43 KDLH 270500
TAFINL
TAF
KINL 270530Z 2706/2806 VRB04KT P6SM SCT080 SCT200
     FM271400 31008KT P6SM SCT030
     FM271800 30010G15KT P6SM VCTS SCT060CB
     FM280200 VRB04KT P6SM VCSH SCT060=



000
FTUS43 KDLH 270500
TAFBRD
TAF
KBRD 270530Z 2706/2806 VRB03KT P6SM SCT070
     FM271700 28008KT P6SM SCT050
     FM272000 31009G14KT P6SM SCT060
     FM280200 VRB04KT P6SM SCT060=



000
FTUS43 KDLH 270500
TAFHYR
TAF
KHYR 270530Z 2706/2806 VRB05KT 6SM BR VCSH BKN008 OVC018
      TEMPO 2708/2712 1SM BR OVC002
     FM271400 VRB05KT P6SM BKN015
     FM271800 28006KT P6SM SCT060
     FM272200 30006G14KT P6SM VCTS SCT070CB
     FM280200 VRB04KT P6SM VCSH SCT080=



000
FTUS43 KDLH 270500
TAFINL
TAF
KINL 270530Z 2706/2806 VRB04KT P6SM SCT080 SCT200
     FM271400 31008KT P6SM SCT030
     FM271800 30010G15KT P6SM VCTS SCT060CB
     FM280200 VRB04KT P6SM VCSH SCT060=



000
FTUS43 KDLH 270500
TAFDLH
TAF
KDLH 270530Z 2706/2806 VRB03KT 6SM BR OVC090
      TEMPO 2709/2712 2SM BR BKN012
     FM271600 29008G13KT P6SM SCT040
     FM272000 29009G20KT P6SM VCTS SCT080CB
     FM280400 VRB03KT P6SM VCSH SCT080=



000
FTUS43 KDLH 270500
TAFHYR
TAF
KHYR 270530Z 2706/2806 VRB05KT 6SM BR VCSH BKN008 OVC018
      TEMPO 2708/2712 1SM BR OVC002
     FM271400 VRB05KT P6SM BKN015
     FM271800 28006KT P6SM SCT060
     FM272200 30006G14KT P6SM VCTS SCT070CB
     FM280200 VRB04KT P6SM VCSH SCT080=



000
FTUS43 KDLH 270500
TAFBRD
TAF
KBRD 270530Z 2706/2806 VRB03KT P6SM SCT070
     FM271700 28008KT P6SM SCT050
     FM272000 31009G14KT P6SM SCT060
     FM280200 VRB04KT P6SM SCT060=



000
FTUS43 KDLH 270300 AAG
TAFHYR
TAF AMD
KHYR 270348Z 2704/2724 36006KT P6SM -RA SCT008 OVC080
      TEMPO 2704/2707 6SM -RA BKN007 OVC100
     FM270700 VRB05KT 4SM BR VCSH BKN008 OVC018
      TEMPO 2708/2712 1SM BR OVC006
     FM271400 VRB05KT P6SM BKN012
     FM271800 28006KT P6SM SCT030
     FM272200 30006KT P6SM VCTS SCT050CB=



000
FTUS43 KDLH 270200 AAF
TAFHYR
TAF AMD
KHYR 270207Z 2702/2724 36006KT P6SM -RA SCT008 OVC080
      TEMPO 2702/2703 6SM -RA BKN010 BKN050 OVC070
     FM270700 VRB05KT 4SM BR VCSH BKN008 OVC018
      TEMPO 2708/2712 1SM BR OVC006
     FM271400 VRB05KT P6SM BKN012
     FM271800 28006KT P6SM SCT030
     FM272200 30006KT P6SM VCTS SCT050CB=



000
FTUS43 KDLH 270100 AAE
TAFHYR
TAF AMD
KHYR 270142Z 2702/2724 36006KT P6SM -RA SCT008 OVC080
      TEMPO 2702/2703 6SM -RA BKN007 BKN030 OVC070
     FM270700 VRB05KT 4SM BR VCSH BKN008 OVC018
      TEMPO 2708/2712 1SM BR OVC006
     FM271400 VRB05KT P6SM BKN012
     FM271800 28006KT P6SM SCT030
     FM272200 30006KT P6SM VCTS SCT050CB=



000
FTUS43 KDLH 270000 AAD
TAFHYR
TAF AMD
KHYR 270058Z 2701/2724 36006KT P6SM -RA SCT008 BKN050 OVC090
      TEMPO 2701/2703 6SM -RA BKN007 BKN030 OVC070
     FM270700 VRB05KT 4SM BR VCSH BKN008 OVC018
      TEMPO 2708/2712 1SM BR OVC006
     FM271400 VRB05KT P6SM BKN012
     FM271800 28006KT P6SM SCT030
     FM272200 30006KT P6SM VCTS SCT050CB=



000
FTUS43 KDLH 270000 AAC
TAFHYR
TAF AMD
KHYR 270058Z 2701/2724 36006KT P6SM -RA SCT008 BKN050 OVC090
      TEMPO 2700/2703 6SM -RA BKN007 BKN030 OVC070
     FM270700 VRB05KT 4SM BR VCSH BKN008 OVC018
      TEMPO 2708/2712 1SM BR OVC006
     FM271400 VRB05KT P6SM BKN012
     FM271800 28006KT P6SM SCT030
     FM272200 30006KT P6SM VCTS SCT050CB=



000
FTUS43 KDLH 270000 AAD
TAFHYR
TAF AMD
KHYR 270058Z 2701/2724 36006KT P6SM -RA SCT008 BKN050 OVC090
      TEMPO 2701/2703 6SM -RA BKN007 BKN030 OVC070
     FM270700 VRB05KT 4SM BR VCSH BKN008 OVC018
      TEMPO 2708/2712 1SM BR OVC006
     FM271400 VRB05KT P6SM BKN012
     FM271800 28006KT P6SM SCT030
     FM272200 30006KT P6SM VCTS SCT050CB=



000
FTUS43 KDLH 270000 AAB
TAFHYR
TAF AMD
KHYR 270055Z 2701/2724 36006KT P6SM -RA SCT008 BKN050 OVC090
      TEMPO 2701/2703 6SM -RA BKN007 BKN030 OVC070
     FM270700 VRB05KT 4SM BR VCSH BKN008 OVC018
      TEMPO 2708/2712 1SM BR OVC006
     FM271400 VRB05KT P6SM BKN012
     FM271800 28006KT P6SM SCT030
     FM272200 30006KT P6SM VCTS SCT050CB=



000
FTUS43 KDLH 262300 AAA
TAFHYR
TAF AMD
KHYR 262354Z 2700/2724 36006KT P6SM -RA SCT008 BKN050 OVC090
      TEMPO 2700/2703 6SM -RA BKN008 BKN030 OVC070
     FM270700 VRB05KT 4SM BR VCSH BKN008 OVC018
      TEMPO 2708/2712 1SM BR OVC006
     FM271400 VRB05KT P6SM BKN012
     FM271800 28006KT P6SM SCT030
     FM272200 30006KT P6SM VCTS SCT050CB=



000
FTUS43 KDLH 262300 AAA
TAFHYR
TAF AMD
KHYR 262354Z 2700/2724 36006KT P6SM -RA SCT008 BKN050 OVC090
      TEMPO 2700/2703 6SM -RA BKN008 BKN030 OVC070
     FM270700 VRB05KT 4SM BR VCSH BKN008 OVC018
      TEMPO 2708/2712 1SM BR OVC006
     FM271400 VRB05KT P6SM BKN012
     FM271800 28006KT P6SM SCT030
     FM272200 30006KT P6SM VCTS SCT050CB=



000
FTUS43 KDLH 262300
TAFHYR
TAF
KHYR 262339Z 2700/2724 36006KT P6SM -RA SCT008 BKN040 OVC080
      TEMPO 2700/2703 6SM -RA BKN008 BKN030 OVC070
     FM270700 VRB05KT 4SM BR VCSH BKN008 OVC018
      TEMPO 2708/2712 1SM BR OVC006
     FM271400 VRB05KT P6SM BKN012
     FM271800 28006KT P6SM SCT030
     FM272200 30006KT P6SM VCTS SCT050CB=



000
FTUS43 KDLH 262300
TAFBRD
TAF
KBRD 262339Z 2700/2724 VRB03KT P6SM BKN140
     FM271400 VRB05KT P6SM SCT030 SCT160
     FM271700 28008KT P6SM SCT050
     FM272000 30009G14KT P6SM SCT060=



000
FTUS43 KDLH 262300
TAFDLH
TAF
KDLH 262339Z 2700/2724 09007KT P6SM SCT090 OVC150
     FM270100 08008KT P6SM SCT020 OVC090
     FM270700 VRB03KT 5SM BR BKN018 OVC090
      TEMPO 2709/2712 2SM BR BKN012
     FM271400 VRB05KT P6SM BKN027
     FM271700 29008KT P6SM SCT040
     FM272000 29009G13KT P6SM VCTS SCT060CB=



000
FTUS43 KDLH 262300
TAFINL
TAF
KINL 262339Z 2700/2724 VRB04KT P6SM SCT080 BKN200
     FM270600 VRB05KT P6SM SCT080 SCT200
     FM271400 31008KT P6SM SCT030
     FM271800 30010G15KT P6SM VCTS SCT060CB=



000
FTUS43 KDLH 262100 AAB
TAFHYR
TAF AMD
KHYR 262143Z 2622/2718 02007KT P6SM -RA OVC007
     FM270200 36006KT P6SM -RA OVC007
      TEMPO 2703/2707 5SM -RA BR OVC006
     FM270700 VRB05KT 4SM BR VCSH BKN008 OVC018
     FM271400 VRB05KT P6SM SCT030=



000
FTUS43 KDLH 262100 AAB
TAFBRD
TAF AMD
KBRD 262136Z 2622/2718 06006KT P6SM FEW050 OVC140
     FM270100 VRB03KT P6SM SCT060 OVC130
     FM270600 VRB05KT P6SM SCT050 BKN140
     FM271400 VRB05KT P6SM BKN050=



000
FTUS43 KDLH 262100 AAB
TAFDLH
TAF AMD
KDLH 262132Z 2622/2718 07011G16KT P6SM SCT016 BKN100
     FM270100 08008KT P6SM SCT020 OVC090
     FM270600 VRB03KT 5SM BR BKN018 OVC090
     FM271400 VRB05KT P6SM SCT030=



000
FTUS43 KDLH 262000 AAA
TAFBRD
TAF AMD
KBRD 262027Z 2620/2718 04010KT P6SM SCT020
      TEMPO 2620/2624 BKN020
     FM270200 VRB06KT P6SM BKN050
     FM270600 VRB05KT P6SM SCT050
     FM271400 VRB05KT P6SM BKN050=



000
FTUS43 KDLH 262000 AAA
TAFHYR
TAF AMD
KHYR 262027Z 2620/2718 01006KT P6SM VCSH OVC009
      TEMPO 2620/2624 4SM -RA BR OVC017
     FM270200 VRB06KT P6SM VCSH OVC020
     FM270600 VRB05KT P6SM OVC030
     FM271400 VRB05KT P6SM SCT030=



000
FTUS43 KDLH 262000 AAA
TAFDLH
TAF AMD
KDLH 262025Z 2620/2718 09008KT P6SM SCT016 BKN100
      TEMPO 2620/2624 BKN016 OVC100
     FM270000 08008KT P6SM OVC020
     FM270600 VRB03KT 5SM BR OVC020
     FM271400 VRB05KT P6SM SCT030=



000
FTUS43 KDLH 262000 AAA
TAFDLH
TAF AMD
KDLH 262025Z 2620/2718 09008KT P6SM SCT016 BKN100
      TEMPO 2620/2624 BKN016 OVC100
     FM270000 08008KT P6SM OVC020
     FM270600 VRB03KT 5SM BR OVC020
     FM271400 VRB05KT P6SM SCT030=



000
FTUS43 KDLH 261700
TAFINL
TAF
KINL 261722Z 2618/2718 VRB04KT P6SM SCT080
     FM262200 VRB05KT P6SM BKN080
     FM270600 VRB05KT P6SM SCT080
     FM271400 33008KT P6SM BKN050=



000
FTUS43 KDLH 261700
TAFDLH
TAF
KDLH 261722Z 2618/2718 11009KT P6SM BKN011 OVC021
      TEMPO 2618/2620 SCT011 OVC021
     FM262000 04007KT P6SM VCSH SCT011 BKN020
      TEMPO 2620/2624 OVC012
     FM270000 08008KT P6SM OVC011
     FM270600 VRB03KT 5SM BR OVC020
     FM271400 VRB05KT P6SM SCT030=



000
FTUS43 KDLH 261700
TAFHYR
TAF
KHYR 261722Z 2618/2718 04006KT P6SM VCSH BKN011 OVC017
      TEMPO 2620/2624 4SM -RA BR SCT011 OVC017
     FM270200 VRB06KT P6SM VCSH OVC020
     FM270600 VRB05KT P6SM OVC030
     FM271400 VRB05KT P6SM SCT030=



000
FTUS43 KDLH 261700
TAFBRD
TAF
KBRD 261722Z 2618/2718 02006KT P6SM SCT018
      TEMPO 2618/2622 BKN018
     FM262200 VRB05KT P6SM OVC020
      TEMPO 2622/2702 BKN060
     FM270200 VRB06KT P6SM BKN050
     FM270600 VRB05KT P6SM SCT050
     FM271400 VRB05KT P6SM BKN050=



000
FTUS43 KDLH 261600 AAF
TAFHYR
TAF AMD
KHYR 261629Z 2616/2712 04006KT P6SM OVC017
      TEMPO 2616/2618 4SM BR OVC011
     FM261800 VRB04KT P6SM -RA BKN005
     FM262000 VRB04KT 5SM -RA BR OVC015
     FM270000 VRB05KT P6SM -DZ OVC015=



000
FTUS43 KDLH 261600 AAF
TAFHYR
TAF AMD
KHYR 261629Z 2616/2712 04006KT P6SM OVC017
      TEMPO 2616/2618 4SM BR OVC011
     FM261800 VRB04KT P6SM -RA BKN005
     FM262000 VRB04KT 5SM -RA BR OVC015
     FM270000 VRB05KT P6SM -DZ OVC015=



000
FTUS43 KDLH 261500 AAE
TAFHYR
TAF AMD
KHYR 261530Z 2615/2712 04006KT P6SM OVC005
      TEMPO 2615/2618 4SM BR OVC010
     FM261800 VRB04KT P6SM -RA BKN005
     FM262000 VRB04KT 5SM -RA BR OVC015
     FM270000 VRB05KT P6SM -DZ OVC015=



000
FTUS43 KDLH 261500 AAE
TAFBRD
TAF AMD
KBRD 261527Z 2615/2712 02006KT P6SM SCT014
      TEMPO 2615/2618 4SM BR BKN014
     FM261800 VRB05KT P6SM OVC015
      TEMPO 2618/2620 BKN050
     FM262100 VRB06KT P6SM BKN050
     FM270000 VRB05KT P6SM SCT050
     FM270800 VRB05KT 4SM BR SCT050=



000
FTUS43 KDLH 261500 AAD
TAFHYR
TAF AMD
KHYR 261502Z 2615/2712 04006KT P6SM OVC005
      TEMPO 2615/2618 4SM BR OVC003
     FM261800 VRB04KT P6SM -RA BKN005
     FM262000 VRB04KT 5SM -RA BR OVC015
     FM270000 VRB05KT P6SM -DZ OVC015=



000
FTUS43 KDLH 261500 AAD
TAFBRD
TAF AMD
KBRD 261501Z 2615/2712 36006KT P6SM SCT012
      TEMPO 2615/2618 4SM BR BKN007
     FM261800 VRB05KT P6SM OVC015
      TEMPO 2618/2620 BKN050
     FM262100 VRB06KT P6SM BKN050
     FM270000 VRB05KT P6SM SCT050
     FM270800 VRB05KT 4SM BR SCT050=



000
FTUS43 KDLH 261400 AAC
TAFBRD
TAF AMD
KBRD 261443Z 2615/2712 03006KT P6SM OVC010
      TEMPO 2615/2618 4SM BR OVC007
     FM261800 VRB05KT P6SM OVC015
      TEMPO 2618/2620 BKN050
     FM262100 VRB06KT P6SM BKN050
     FM270000 VRB05KT P6SM SCT050
     FM270800 VRB05KT 4SM BR SCT050=



000
FTUS43 KDLH 261400 AAC
TAFHYR
TAF AMD
KHYR 261439Z 2615/2712 04006KT P6SM OVC005
      TEMPO 2615/2618 4SM BR OVC003
     FM261800 VRB04KT P6SM -RA BKN005
     FM262000 VRB04KT 5SM -RA BR OVC015
     FM270000 VRB05KT P6SM -DZ OVC015=



000
FTUS43 KDLH 261400 AAC
TAFHYR
TAF AMD
KHYR 261439Z 2615/2712 04006KT P6SM OVC005
      TEMPO 2615/2618 4SM BR OVC003
     FM261800 VRB04KT P6SM -RA BKN005
     FM262000 VRB04KT 5SM -RA BR OVC015
     FM270000 VRB05KT P6SM -DZ OVC015=



000
FTUS43 KDLH 261200 AAB
TAFBRD
TAF AMD
KBRD 261250Z 2613/2712 03006KT P6SM OVC009
      TEMPO 2613/2615 4SM BR OVC007
     FM261800 VRB06KT P6SM SCT040 OVC200=



000
FTUS43 KDLH 261200 AAB
TAFBRD
TAF AMD
KBRD 261250Z 2613/2712 03006KT P6SM OVC009
      TEMPO 2613/2615 4SM BR OVC007
     FM261800 VRB06KT P6SM SCT040 OVC200=



000
FTUS43 KDLH 261200 AAB
TAFHYR
TAF AMD
KHYR 261250Z 2613/2712 01003KT 2SM BR OVC002
      TEMPO 2613/2615 4SM BR OVC004
     FM261500 VRB04KT P6SM -RA BKN050
     FM261800 VRB04KT 5SM -RA BR OVC025
     FM270000 VRB05KT P6SM -DZ OVC025=



000
FTUS43 KDLH 261200 AAB
TAFHYR
TAF AMD
KHYR 261250Z 2613/2712 01003KT 2SM BR OVC002
      TEMPO 2613/2615 4SM BR OVC004
     FM261500 VRB04KT P6SM -RA BKN050
     FM261800 VRB04KT 5SM -RA BR OVC025
     FM270000 VRB05KT P6SM -DZ OVC025=



000
FTUS43 KDLH 261200 AAA
TAFDLH
TAF AMD
KDLH 261248Z 2613/2712 03006KT P6SM VCSH OVC004
     FM261500 04007KT P6SM SCT004 BKN015
     FM261800 08008KT P6SM BKN025
     FM270200 VRB03KT P6SM FEW010 OVC100=



000
FTUS43 KDLH 261100 RRA
TAFINL
TAF
KINL 261141Z 2612/2712 VRB04KT P6SM SCT080=



000
FTUS43 KDLH 261100 RRA
TAFHYR
TAF
KHYR 261141Z 2612/2712 34003KT 1/4SM FG VV002
      TEMPO 2612/2614 2SM BR OVC004
     FM261400 VRB04KT P6SM -RA BKN050
     FM261800 VRB04KT 5SM -RA BR OVC025
     FM270000 VRB05KT P6SM -DZ OVC025=



000
FTUS43 KDLH 261100 RRA
TAFBRD
TAF
KBRD 261141Z 2612/2712 01005KT P6SM OVC011
      TEMPO 2612/2614 4SM BR OVC007
     FM261800 VRB06KT P6SM SCT040 OVC200=



000
FTUS43 KDLH 261100 RRA
TAFDLH
TAF
KDLH 261141Z 2612/2712 04006KT P6SM VCSH OVC005
      TEMPO 2612/2614 4SM BR SCT004
     FM261400 04007KT P6SM SCT004 BKN015
     FM261800 08008KT P6SM BKN025
     FM270200 VRB03KT P6SM FEW010 OVC100=



000
FTUS43 KDLH 261100 RRA
TAFINL
TAF
KINL 261141Z 2612/2712 VRB04KT P6SM SCT080=



000
FTUS43 KDLH 261100 RRA
TAFDLH
TAF
KDLH 261141Z 2612/2712 04006KT P6SM VCSH OVC005
      TEMPO 2612/2614 4SM BR SCT004
     FM261400 04007KT P6SM SCT004 BKN015
     FM261800 08008KT P6SM BKN025
     FM270200 VRB03KT P6SM FEW010 OVC100=



000
FTUS43 KDLH 261100 RRA
TAFHYR
TAF
KHYR 261141Z 2612/2712 34003KT 1/4SM FG VV002
      TEMPO 2612/2614 2SM BR OVC004
     FM261400 VRB04KT P6SM -RA BKN050
     FM261800 VRB04KT 5SM -RA BR OVC025
     FM270000 VRB05KT P6SM -DZ OVC025=



000
FTUS43 KDLH 261100 RRA
TAFBRD
TAF
KBRD 261141Z 2612/2712 01005KT P6SM OVC011
      TEMPO 2612/2614 4SM BR OVC007
     FM261800 VRB06KT P6SM SCT040 OVC200=



000
FTUS43 KDLH 261100 AAA
TAFHYR
TAF AMD
KHYR 261123Z 2611/2706 34003KT 1/4SM FG VV002
      TEMPO 2611/2614 2SM BR OVC004
     FM261400 VRB04KT P6SM VCSH BKN050
     FM270000 VRB05KT P6SM -DZ OVC025=



000
FTUS43 KDLH 261100 AAA
TAFBRD
TAF AMD
KBRD 261122Z 2611/2706 01005KT P6SM OVC011
      TEMPO 2611/2613 4SM BR OVC007
     FM261800 VRB06KT P6SM SCT040 OVC200=



000
FTUS43 KDLH 261100 AAA
TAFDLH
TAF AMD
KDLH 261117Z 2611/2706 04006KT P6SM VCSH OVC004
      TEMPO 2611/2614 4SM BR SCT004
     FM261400 04007KT P6SM SCT004 BKN050
     FM261800 08008KT P6SM BKN050
     FM270200 VRB03KT P6SM FEW010 OVC100=



000
FTUS43 KDLH 261100 AAA
TAFDLH
TAF AMD
KDLH 261117Z 2611/2706 04006KT P6SM VCSH OVC004
      TEMPO 2611/2614 4SM BR SCT004
     FM261400 04007KT P6SM SCT004 BKN050
     FM261800 08008KT P6SM BKN050
     FM270200 VRB03KT P6SM FEW010 OVC100=



000
FTUS43 KDLH 261000 AAA
TAFBRD
TAF AMD
KBRD 261008Z 2610/2706 02005KT P6SM FEW007 OVC011
      TEMPO 2610/2613 2SM BR OVC004
     FM261800 VRB06KT P6SM SCT040 OVC200=



000
FTUS43 KDLH 260800 AAB
TAFHYR
TAF AMD
KHYR 260842Z 2609/2706 00000KT 1/2SM FG FEW002 SCT070
      TEMPO 2609/2612 2SM BR OVC004
     FM261600 VRB04KT P6SM VCSH BKN050
     FM270000 VRB05KT P6SM -DZ OVC025=



000
FTUS43 KDLH 260500 AAA
TAFHYR
TAF AMD
KHYR 260526Z 2605/2706 VRB03KT 6SM -DZ BR SCT015 BKN040
      TEMPO 2609/2612 2SM BR OVC004
     FM261600 VRB04KT P6SM VCSH BKN050
     FM270000 VRB05KT P6SM -DZ OVC025=



000
FTUS43 KDLH 260500 AAA
TAFHYR
TAF AMD
KHYR 260526Z 2605/2706 VRB03KT 6SM -DZ BR SCT015 BKN040
      TEMPO 2609/2612 2SM BR OVC004
     FM261600 VRB04KT P6SM VCSH BKN050
     FM270000 VRB05KT P6SM -DZ OVC025=



000
FTUS43 KDLH 260500
TAFBRD
TAF
KBRD 260524Z 2606/2706 VRB05KT 5SM BR OVC008
      TEMPO 2609/2613 2SM BR OVC004
     FM261800 VRB06KT P6SM SCT040 OVC200=



000
FTUS43 KDLH 260500
TAFHYR
TAF
KHYR 260524Z 2606/2706 VRB03KT 4SM -DZ BR OVC015
      TEMPO 2609/2612 2SM BR OVC004
     FM261600 VRB04KT P6SM VCSH BKN050
     FM270000 VRB05KT P6SM -DZ OVC025=



000
FTUS43 KDLH 260500
TAFINL
TAF
KINL 260524Z 2606/2706 VRB03KT P6SM BKN090
     FM261300 VRB06KT P6SM SCT070=



000
FTUS43 KDLH 260500
TAFDLH
TAF
KDLH 260524Z 2606/2706 VRB04KT 5SM BR VCSH OVC004
      TEMPO 2609/2613 1/2SM FG
     FM261400 VRB04KT 4SM BR OVC014
     FM261800 08008KT P6SM BKN050
     FM270200 VRB03KT P6SM FEW010 OVC100=



000
FTUS43 KDLH 260400 AAA
TAFHYR
TAF AMD
KHYR 260445Z 2605/2624 00000KT 3SM -DZ BR SCT040
      TEMPO 2605/2609 1 1/2SM BR OVC015
     FM261400 VRB05KT P6SM BKN025
     FM261800 02004KT P6SM VCSH BKN030=



000
FTUS43 KDLH 260400 AAD
TAFBRD
TAF AMD
KBRD 260431Z 2605/2624 VRB05KT 5SM BR OVC010
     FM260800 36004KT P6SM OVC017
     FM261300 VRB04KT P6SM SCT040=



000
FTUS43 KDLH 260300 AAC
TAFBRD
TAF AMD
KBRD 260304Z 2603/2624 02015KT 6SM -RA BR BKN009
     FM260400 VRB05KT 2SM BR OVC021
     FM260800 36004KT P6SM OVC017
     FM261300 VRB04KT P6SM SCT040=



000
FTUS43 KDLH 260300 AAC
TAFBRD
TAF AMD
KBRD 260304Z 2603/2624 02015KT 6SM -RA BR BKN009
     FM260400 VRB05KT 2SM BR OVC021
     FM260800 36004KT P6SM OVC017
     FM261300 VRB04KT P6SM SCT040=



000
FTUS43 KDLH 260300 AAC
TAFDLH
TAF AMD
KDLH 260301Z 2603/2624 02005KT 5SM BR OVC005
     FM260600 VRB03KT 3SM BR OVC007
     FM261400 07004KT P6SM OVC015
     FM261800 VRB04KT P6SM BKN050=



000
FTUS43 KDLH 260200 AAB
TAFBRD
TAF AMD
KBRD 260257Z 2603/2624 02015KT 4SM -RA BR BKN007 OVC011
     FM260400 VRB05KT 2SM BR OVC021
     FM260800 36004KT P6SM OVC017
     FM261300 VRB04KT P6SM SCT040=



000
FTUS43 KDLH 260200 AAB
TAFBRD
TAF AMD
KBRD 260257Z 2603/2624 02015KT 4SM -RA BR BKN007 OVC011
     FM260400 VRB05KT 2SM BR OVC021
     FM260800 36004KT P6SM OVC017
     FM261300 VRB04KT P6SM SCT040=



000
FTUS43 KDLH 260200 AAB
TAFDLH
TAF AMD
KDLH 260252Z 2603/2624 02005KT 3SM BR OVC006
     FM260600 VRB03KT 3SM BR OVC007
     FM261400 07004KT P6SM OVC015
     FM261800 VRB04KT P6SM BKN050=



000
FTUS43 KDLH 260200 AAB
TAFDLH
TAF AMD
KDLH 260252Z 2603/2624 02005KT 3SM BR OVC006
     FM260600 VRB03KT 3SM BR OVC007
     FM261400 07004KT P6SM OVC015
     FM261800 VRB04KT P6SM BKN050=



000
FTUS43 KDLH 260200 AAA
TAFDLH
TAF AMD
KDLH 260222Z 2602/2624 02005KT 2SM BR OVC006
     FM260600 VRB03KT 3SM BR OVC007
     FM261400 07004KT P6SM OVC015
     FM261800 VRB04KT P6SM BKN050=



000
FTUS43 KDLH 260100 AAA
TAFBRD
TAF AMD
KBRD 260137Z 2602/2624 02015KT 2SM -RA BR BKN007 OVC011
     FM260400 VRB05KT 2SM BR OVC021
     FM260800 36004KT P6SM OVC017
     FM261300 VRB04KT P6SM SCT040=



000
FTUS43 KDLH 252300
TAFHYR
TAF
KHYR 252336Z 2600/2624 20007KT P6SM OVC060
     FM260200 VRB03KT P6SM VCSH SCT029 BKN060
     FM260500 00000KT 3SM -DZ BR OVC015
     FM261400 VRB05KT P6SM BKN025
     FM261800 02004KT P6SM VCSH BKN030=



000
FTUS43 KDLH 252300
TAFBRD
TAF
KBRD 252336Z 2600/2624 01006KT 5SM -RA BR OVC005
     FM260400 VRB05KT 2SM BR OVC021
     FM260800 36004KT P6SM OVC017
     FM261300 VRB04KT P6SM SCT040=



000
FTUS43 KDLH 252300
TAFINL
TAF
KINL 252336Z 2600/2624 13007KT P6SM -RA FEW050 BKN080
     FM260200 VRB03KT P6SM OVC070
     FM261300 23006KT P6SM SCT070=



000
FTUS43 KDLH 252300
TAFINL
TAF
KINL 252336Z 2600/2624 13007KT P6SM -RA FEW050 BKN080
     FM260200 VRB03KT P6SM OVC070
     FM261300 23006KT P6SM SCT070=



000
FTUS43 KDLH 252300
TAFDLH
TAF
KDLH 252336Z 2600/2624 07011KT 1SM -DZ BR OVC002
      TEMPO 2600/2602 1SM -DZ BR OVC003
     FM260600 VRB03KT 3SM BR OVC007
     FM261400 07004KT P6SM OVC015
     FM261800 VRB04KT P6SM BKN050=



000
FTUS43 KDLH 252300
TAFBRD
TAF
KBRD 252336Z 2600/2624 01006KT 5SM -RA BR OVC005
     FM260400 VRB05KT 2SM BR OVC021
     FM260800 36004KT P6SM OVC017
     FM261300 VRB04KT P6SM SCT040=



000
FTUS43 KDLH 252300
TAFHYR
TAF
KHYR 252336Z 2600/2624 20007KT P6SM OVC060
     FM260200 VRB03KT P6SM VCSH SCT029 BKN060
     FM260500 00000KT 3SM -DZ BR OVC015
     FM261400 VRB05KT P6SM BKN025
     FM261800 02004KT P6SM VCSH BKN030=



000
FTUS43 KDLH 252300
TAFDLH
TAF
KDLH 252336Z 2600/2624 07011KT 1SM -DZ BR OVC002
      TEMPO 2600/2602 1SM -DZ BR OVC003
     FM260600 VRB03KT 3SM BR OVC007
     FM261400 07004KT P6SM OVC015
     FM261800 VRB04KT P6SM BKN050=



000
FTUS43 KDLH 252300 AAC
TAFDLH
TAF AMD
KDLH 252309Z 2523/2618 11006KT 1/4SM -RA FG VV002
     FM260000 06014KT 3SM -RA BR OVC008
      TEMPO 2600/2602 1SM BR OVC005
     FM260200 36006KT 1SM -DZ BR OVC004
     FM260600 VRB03KT 3SM BR OVC007
     FM261400 09011KT P6SM OVC015=



000
FTUS43 KDLH 252300 AAC
TAFDLH
TAF AMD
KDLH 252309Z 2523/2618 11006KT 1/4SM -RA FG VV002
     FM260000 06014KT 3SM -RA BR OVC008
      TEMPO 2600/2602 1SM BR OVC005
     FM260200 36006KT 1SM -DZ BR OVC004
     FM260600 VRB03KT 3SM BR OVC007
     FM261400 09011KT P6SM OVC015=



000
FTUS43 KDLH 252200 AAB
TAFDLH
TAF AMD
KDLH 252238Z 2523/2618 14009KT 2SM -RA BR OVC004
     FM260000 06014KT 3SM -RA BR OVC008
      TEMPO 2600/2602 1SM BR OVC005
     FM260200 36006KT 1SM -DZ BR OVC004
     FM260600 VRB03KT 3SM BR OVC007
     FM261400 09011KT P6SM OVC015=



000
FTUS43 KDLH 252100 AAB
TAFINL
TAF AMD
KINL 252146Z 2522/2618 14006KT P6SM -RA SCT026 BKN035
     FM260000 14007KT P6SM VCSH OVC050
      TEMPO 2600/2602 6SM -RA BR OVC030
     FM260200 VRB05KT 3SM BR OVC040
     FM261400 23006KT P6SM OVC040=



000
FTUS43 KDLH 252100 AAD
TAFHYR
TAF AMD
KHYR 252112Z 2521/2618 24007KT P6SM VCSH SCT020 BKN035
     FM260000 VRB05KT P6SM VCSH OVC035
      TEMPO 2600/2604 3SM -SHRA BR OVC020
     FM260400 25006KT 2SM BR VCSH OVC020
     FM260600 19004KT 3SM BR VCSH OVC015
     FM261400 VRB05KT 5SM BR VCSH OVC030=



000
FTUS43 KDLH 252100 AAC
TAFHYR
TAF AMD
KHYR 252105Z 2521/2618 23007KT P6SM VCSH OVC030
      TEMPO 2521/2524 OVC020
     FM260000 VRB05KT P6SM VCSH OVC035
      TEMPO 2600/2604 3SM -SHRA BR OVC020
     FM260400 25006KT 2SM BR VCSH OVC020
     FM260600 19004KT 3SM BR VCSH OVC015
     FM261400 VRB05KT 5SM BR VCSH OVC030=



000
FTUS43 KDLH 252100 AAA
TAFINL
TAF AMD
KINL 252103Z 2521/2618 VRB05KT P6SM BKN100
      TEMPO 2521/2524 5SM -RA OVC050
     FM260000 14007KT P6SM VCSH OVC050
      TEMPO 2600/2602 6SM -RA BR OVC030
     FM260200 VRB05KT 3SM BR OVC040
     FM261400 23006KT P6SM OVC040=



000
FTUS43 KDLH 252100 AAB
TAFBRD
TAF AMD
KBRD 252103Z 2521/2618 08007KT 1 1/2SM -RA BR OVC004
      TEMPO 2521/2524 3SM -RA BR OVC010
     FM260000 VRB04KT 3SM BR VCSH OVC015
     FM260600 VRB05KT 2SM BR OVC011
     FM261400 VRB05KT P6SM OVC030=



000
FTUS43 KDLH 252100 AAA
TAFDLH
TAF AMD
KDLH 252101Z 2521/2618 07012KT 1 1/2SM BR VCSH OVC005
      TEMPO 2521/2524 1SM -RA BR OVC020
     FM260000 06014KT 3SM -RA BR OVC008
      TEMPO 2600/2602 1SM BR OVC005
     FM260200 36006KT 1SM -DZ BR OVC004
     FM260600 VRB03KT 3SM BR OVC007
     FM261400 09011KT P6SM OVC015=



000
FTUS43 KDLH 252000 AAA
TAFBRD
TAF AMD
KBRD 252045Z 2521/2618 08007KT 1 1/2SM -RA BR OVC008
      TEMPO 2521/2524 3SM -RA BR OVC014
     FM260100 VRB04KT 3SM BR VCSH OVC015
     FM260600 VRB05KT 2SM BR OVC011
     FM261400 VRB05KT P6SM OVC030=



000
FTUS43 KDLH 252000 AAB
TAFHYR
TAF AMD
KHYR 252003Z 2520/2618 23007KT P6SM VCSH BKN011 OVC030
      TEMPO 2520/2524 OVC030
     FM260000 VRB05KT 3SM -SHRA BR OVC008
      TEMPO 2600/2602 1SM -SHRA BR OVC015
     FM260200 25006KT 2SM BR VCSH OVC012
     FM260600 19004KT 2SM BR VCSH OVC008
     FM261400 VRB05KT 3SM BR VCSH OVC011=



000
FTUS43 KDLH 251900 AAA
TAFHYR
TAF AMD
KHYR 251900Z 2519/2618 23007KT P6SM VCSH OVC006
      TEMPO 2519/2521 3SM -RA OVC015
     FM252100 VRB05KT 3SM -SHRA BR OVC008
      TEMPO 2521/2524 1SM -SHRA BR OVC015
     FM260000 25006KT 2SM BR VCSH OVC012
     FM260600 19004KT 2SM BR VCSH OVC008
     FM261400 VRB05KT 3SM BR VCSH OVC011=



000
FTUS43 KDLH 251800 AAB
TAFDLH
TAF AMD
KDLH 251831Z 2519/2618 07018G27KT 1/2SM FG VCSH OVC002
      TEMPO 2519/2521 1SM -RA BR OVC006
     FM252100 06013G20KT 3SM -RA BR OVC008
      TEMPO 2521/2524 1SM BR OVC005
     FM260100 36006KT 1SM -DZ BR OVC004
     FM260600 VRB03KT 3SM BR OVC007
     FM261400 09011KT P6SM OVC015=



000
FTUS43 KDLH 251800 AAA
TAFDLH
TAF AMD
KDLH 251817Z 2518/2618 07018G27KT 1/4SM FG VCSH OVC002
      TEMPO 2518/2520 1/2SM -RA FG OVC006
     FM252000 06013G20KT 3SM -RA BR OVC008
      TEMPO 2520/2524 1SM BR OVC005
     FM260100 36006KT 1SM -DZ BR OVC004
     FM260600 VRB03KT 3SM BR OVC007
     FM261400 09011KT P6SM OVC015=



000
FTUS43 KDLH 251700
TAFBRD
TAF
KBRD 251738Z 2518/2618 08007KT 2SM -RA BR SCT007 OVC030
      TEMPO 2518/2520 4SM -RA BR OVC030
     FM252000 36006KT 4SM -RA BR OVC012
     FM260100 VRB04KT 3SM BR VCSH OVC015
     FM260600 VRB05KT 2SM BR OVC011
     FM261400 VRB05KT P6SM OVC030=



000
FTUS43 KDLH 251700
TAFHYR
TAF
KHYR 251738Z 2518/2618 20007KT P6SM VCSH OVC010
      TEMPO 2518/2520 3SM -RA OVC015
     FM252000 VRB05KT 3SM -SHRA BR OVC008
      TEMPO 2520/2524 1SM -SHRA BR OVC015
     FM260000 25006KT 2SM BR VCSH OVC012
     FM260600 19004KT 2SM BR VCSH OVC008
     FM261400 VRB05KT 3SM BR VCSH OVC011=



000
FTUS43 KDLH 251700
TAFINL
TAF
KINL 251738Z 2518/2618 VRB05KT P6SM BKN100
      TEMPO 2518/2522 5SM -RA OVC040
     FM252200 14007KT P6SM VCSH OVC040
      TEMPO 2522/2602 5SM -RA BR OVC020
     FM260200 VRB05KT 3SM BR OVC030
     FM261400 23006KT P6SM OVC040=



000
FTUS43 KDLH 251700
TAFDLH
TAF
KDLH 251738Z 2518/2618 07018G27KT 1 1/2SM -RA BR OVC002
      TEMPO 2518/2520 3SM -RA BR OVC006
     FM252000 06013G20KT 3SM -RA BR OVC008
      TEMPO 2520/2524 1SM BR
     FM260100 36006KT 1SM -DZ BR OVC004
     FM260600 VRB03KT 3SM BR OVC007
     FM261400 09011KT P6SM OVC015=



000
FTUS43 KDLH 251700
TAFINL
TAF
KINL 251738Z 2518/2618 VRB05KT P6SM BKN100
      TEMPO 2518/2522 5SM -RA OVC040
     FM252200 14007KT P6SM VCSH OVC040
      TEMPO 2522/2602 5SM -RA BR OVC020
     FM260200 VRB05KT 3SM BR OVC030
     FM261400 23006KT P6SM OVC040=



000
FTUS43 KDLH 251700
TAFHYR
TAF
KHYR 251738Z 2518/2618 20007KT P6SM VCSH OVC010
      TEMPO 2518/2520 3SM -RA OVC015
     FM252000 VRB05KT 3SM -SHRA BR OVC008
      TEMPO 2520/2524 1SM -SHRA BR OVC015
     FM260000 25006KT 2SM BR VCSH OVC012
     FM260600 19004KT 2SM BR VCSH OVC008
     FM261400 VRB05KT 3SM BR VCSH OVC011=



000
FTUS43 KDLH 251700
TAFBRD
TAF
KBRD 251738Z 2518/2618 08007KT 2SM -RA BR SCT007 OVC030
      TEMPO 2518/2520 4SM -RA BR OVC030
     FM252000 36006KT 4SM -RA BR OVC012
     FM260100 VRB04KT 3SM BR VCSH OVC015
     FM260600 VRB05KT 2SM BR OVC011
     FM261400 VRB05KT P6SM OVC030=



000
FTUS43 KDLH 251500 AAC
TAFHYR
TAF AMD
KHYR 251557Z 2516/2612 20007KT P6SM -RA OVC012
     FM251900 VRB05KT 5SM -SHRA BR OVC008
     FM252200 25006KT P6SM VCSH OVC012
     FM260300 19004KT 2SM -DZ BR OVC008=



000
FTUS43 KDLH 251500 AAA
TAFDLH
TAF AMD
KDLH 251534Z 2516/2612 07018G27KT 1 1/2SM -RA BR OVC006
     FM251800 06013G20KT 1SM -RA BR OVC010
     FM260100 36006KT 1SM -DZ BR OVC002
     FM261000 VRB03KT 3SM BR OVC007=



000
FTUS43 KDLH 251500 AAA
TAFDLH
TAF AMD
KDLH 251534Z 2516/2612 07018G27KT 1 1/2SM -RA BR OVC006
     FM251800 06013G20KT 1SM -RA BR OVC010
     FM260100 36006KT 1SM -DZ BR OVC002
     FM261000 VRB03KT 3SM BR OVC007=



000
FTUS43 KDLH 251300 AAB
TAFHYR
TAF AMD
KHYR 251305Z 2513/2612 07004KT P6SM -RA BKN007 BKN013 OVC022
     FM251900 VRB05KT 5SM -SHRA BR OVC008
     FM252200 25006KT P6SM VCSH OVC012
     FM260300 19004KT 2SM -DZ BR OVC008=



000
FTUS43 KDLH 251300 AAB
TAFBRD
TAF AMD
KBRD 251305Z 2513/2612 06007KT 1 1/2SM -RA BR BKN007 OVC011
     FM251500 05007KT 2SM -RA BR OVC006
     FM252100 36006KT 4SM -RA BR OVC012
     FM260100 VRB04KT 6SM BR BKN015=



000
FTUS43 KDLH 251300 AAB
TAFHYR
TAF AMD
KHYR 251305Z 2513/2612 07004KT P6SM -RA BKN007 BKN013 OVC022
     FM251900 VRB05KT 5SM -SHRA BR OVC008
     FM252200 25006KT P6SM VCSH OVC012
     FM260300 19004KT 2SM -DZ BR OVC008=



000
FTUS43 KDLH 251300 AAB
TAFBRD
TAF AMD
KBRD 251305Z 2513/2612 06007KT 1 1/2SM -RA BR BKN007 OVC011
     FM251500 05007KT 2SM -RA BR OVC006
     FM252100 36006KT 4SM -RA BR OVC012
     FM260100 VRB04KT 6SM BR BKN015=



000
FTUS43 KDLH 251300 AAB
TAFDLH
TAF AMD
KDLH 251304Z 2513/2612 07018G27KT 2SM -RA BR OVC008
     FM251500 06013KT 1 1/2SM -RA BR OVC004
     FM260100 36006KT 1SM -DZ BR OVC002
     FM261000 VRB03KT 3SM BR OVC007=



000
FTUS43 KDLH 251300 AAB
TAFDLH
TAF AMD
KDLH 251304Z 2513/2612 07018G27KT 2SM -RA BR OVC008
     FM251500 06013KT 1 1/2SM -RA BR OVC004
     FM260100 36006KT 1SM -DZ BR OVC002
     FM261000 VRB03KT 3SM BR OVC007=



000
FTUS43 KDLH 251200 AAA
TAFHYR
TAF AMD
KHYR 251241Z 2513/2612 05005KT 1 1/2SM RA BR SCT009 OVC015
     FM251900 VRB05KT 5SM -SHRA BR OVC008
     FM252200 25006KT P6SM VCSH OVC012
     FM260300 19004KT 2SM -DZ BR OVC008=



000
FTUS43 KDLH 251200 AAA
TAFBRD
TAF AMD
KBRD 251241Z 2513/2612 05011KT 2SM -RA BR OVC007
     FM251500 05007KT 2SM -RA BR OVC006
     FM252100 36006KT 4SM -RA BR OVC012
     FM260100 VRB04KT 6SM BR BKN015=



000
FTUS43 KDLH 251200 AAA
TAFHYR
TAF AMD
KHYR 251241Z 2513/2612 05005KT 1 1/2SM RA BR SCT009 OVC015
     FM251900 VRB05KT 5SM -SHRA BR OVC008
     FM252200 25006KT P6SM VCSH OVC012
     FM260300 19004KT 2SM -DZ BR OVC008=



000
FTUS43 KDLH 251200 AAA
TAFBRD
TAF AMD
KBRD 251241Z 2513/2612 05011KT 2SM -RA BR OVC007
     FM251500 05007KT 2SM -RA BR OVC006
     FM252100 36006KT 4SM -RA BR OVC012
     FM260100 VRB04KT 6SM BR BKN015=



000
FTUS43 KDLH 251200 AAA
TAFDLH
TAF AMD
KDLH 251240Z 2513/2612 06015G20KT 3SM -RA BR OVC006
     FM251500 06013KT 1 1/2SM -RA BR OVC004
     FM260100 36006KT 1SM -DZ BR OVC002
     FM261000 VRB03KT 3SM BR OVC007=



000
FTUS43 KDLH 251100
TAFBRD
TAF
KBRD 251138Z 2512/2612 06008KT 5SM -RA BR BKN007 OVC017
     FM251500 05007KT 2SM -RA BR OVC006
     FM252100 36006KT 4SM -RA BR OVC012
     FM260100 VRB04KT 6SM BR BKN015=



000
FTUS43 KDLH 251100
TAFHYR
TAF
KHYR 251138Z 2512/2612 05007KT P6SM -RA SCT008 OVC017
     FM251900 VRB05KT 5SM -SHRA BR OVC008
     FM252200 25006KT P6SM VCSH OVC012
     FM260300 19004KT 2SM -DZ BR OVC008=



000
FTUS43 KDLH 251100
TAFINL
TAF
KINL 251138Z 2512/2612 VRB05KT P6SM BKN120=



000
FTUS43 KDLH 251100
TAFDLH
TAF
KDLH 251138Z 2512/2612 06013KT 3SM -RA BR OVC005
     FM251500 06013KT 1 1/2SM -RA BR OVC004
     FM260100 36006KT 1SM -DZ BR OVC002
     FM261000 VRB03KT 3SM BR OVC007=



000
FTUS43 KDLH 251000 AAA
TAFDLH
TAF AMD
KDLH 251026Z 2510/2606 06013KT P6SM OVC005
     FM251400 07011KT 2SM -RA BR OVC006
     FM260100 36006KT 2SM -RA BR OVC004=



000
FTUS43 KDLH 250700 AAA
TAFBRD
TAF AMD
KBRD 250752Z 2508/2606 06009KT 5SM -RA BR OVC006
     FM251000 06006KT 3SM -RA BR OVC006
     FM251400 05007KT 2SM -RA BR OVC006
     FM252100 36006KT 4SM -RA BR OVC012=



000
FTUS43 KDLH 250500 AAA
TAFHYR
TAF AMD
KHYR 250553Z 2506/2606 07005KT 6SM -RA OVC008
     FM251300 10004KT 2SM -RA BR OVC006
     FM251900 22006KT 5SM -SHRA BR OVC008
     FM252200 21006KT P6SM VCSH OVC012
     FM260300 19004KT 5SM BR OVC008=



000
FTUS43 KDLH 250500 AAA
TAFHYR
TAF AMD
KHYR 250553Z 2506/2606 07005KT 6SM -RA OVC008
     FM251300 10004KT 2SM -RA BR OVC006
     FM251900 22006KT 5SM -SHRA BR OVC008
     FM252200 21006KT P6SM VCSH OVC012
     FM260300 19004KT 5SM BR OVC008=



000
FTUS43 KDLH 250500 AAA
TAFDLH
TAF AMD
KDLH 250552Z 2506/2606 09006KT 4SM -RA BKN005 OVC025
      TEMPO 2506/2509 2SM -RA BR SCT005 OVC025
     FM250900 08009KT 5SM -RA BR SCT004 OVC009
     FM251400 07011KT 2SM -RA BR OVC006
     FM260100 36006KT 2SM -RA BR OVC004=



000
FTUS43 KDLH 250500
TAFBRD
TAF
KBRD 250522Z 2506/2606 06007KT 4SM -RA BR BKN012 OVC035
      TEMPO 2506/2509 3SM -RA BR OVC008
     FM250900 06006KT 3SM -RA BR OVC006
     FM251400 05007KT 2SM -RA BR OVC006
     FM252100 36006KT 4SM -RA BR OVC012=



000
FTUS43 KDLH 250500
TAFDLH
TAF
KDLH 250522Z 2506/2606 09006KT 6SM -RA OVC050
      TEMPO 2506/2509 5SM -RA BR OVC025
     FM250900 08009KT 5SM -RA BR SCT004 OVC009
     FM251400 07011KT 2SM -RA BR OVC006
     FM260100 36006KT 2SM -RA BR OVC004=



000
FTUS43 KDLH 250500
TAFINL
TAF
KINL 250522Z 2506/2606 00000KT P6SM BKN120=



000
FTUS43 KDLH 250500
TAFHYR
TAF
KHYR 250522Z 2506/2606 07005KT 6SM -RA OVC012
     FM250700 09006KT 5SM -RA BR OVC008
     FM251300 10004KT 2SM -RA BR OVC006
     FM251900 22006KT 5SM -SHRA BR OVC008
     FM252200 21006KT P6SM VCSH OVC012
     FM260300 19004KT 5SM BR OVC008=



000
FTUS43 KDLH 250300 AAA
TAFDLH
TAF AMD
KDLH 250326Z 2503/2524 10005KT 6SM -RA BR BKN035 OVC060
     FM250600 07012KT 3SM -RA BR SCT004 OVC008
     FM251300 07012KT 2SM -RA BR OVC006
     FM252200 07008KT 3SM -RA BR OVC004=



000
FTUS43 KDLH 250300 AAA
TAFHYR
TAF AMD
KHYR 250326Z 2503/2524 00000KT 6SM -RA BR OVC060
      TEMPO 2503/2506 4SM -RA BR OVC012
     FM250600 09006KT 2SM -RA BR OVC008
     FM251300 10004KT 1 1/2SM -RA BR OVC008
     FM252000 21006KT 3SM -SHRA BR OVC012=



000
FTUS43 KDLH 250200 AAB
TAFBRD
TAF AMD
KBRD 250246Z 2503/2524 07006KT 6SM -RA OVC050
      TEMPO 2503/2505 5SM -RA OVC025
     FM250500 06004KT 3SM -RA BR OVC008
     FM251200 05007KT 2SM -RA BR OVC006
     FM252200 34006KT 3SM -RA BR OVC012=



000
FTUS43 KDLH 250200 AAB
TAFBRD
TAF AMD
KBRD 250246Z 2503/2524 07006KT 6SM -RA OVC050
      TEMPO 2503/2505 5SM -RA OVC025
     FM250500 06004KT 3SM -RA BR OVC008
     FM251200 05007KT 2SM -RA BR OVC006
     FM252200 34006KT 3SM -RA BR OVC012=



000
FTUS43 KDLH 250100 AAA
TAFBRD
TAF AMD
KBRD 250103Z 2501/2524 13005KT 5SM -RA SCT040 OVC070
     FM250200 08004KT 5SM -RA OVC025
     FM250400 06004KT 3SM -RA BR OVC008
     FM251200 05007KT 2SM -RA BR OVC006
     FM252200 34006KT 3SM -RA BR OVC012=



000
FTUS43 KDLH 242300
TAFINL
TAF
KINL 242340Z 2500/2524 04005KT P6SM SKC=



000
FTUS43 KDLH 242300
TAFBRD
TAF
KBRD 242340Z 2500/2524 13005KT P6SM VCSH BKN040 OVC070
     FM250200 08004KT 5SM -RA OVC025
     FM250400 06004KT 3SM -RA BR OVC008
     FM251200 05007KT 2SM -RA BR OVC006
     FM252200 34006KT 3SM -RA BR OVC012=



000
FTUS43 KDLH 242300
TAFDLH
TAF
KDLH 242340Z 2500/2524 09008KT P6SM VCSH BKN060 OVC090
     FM250300 08005KT 5SM -RA BR BKN035 OVC060
     FM250600 07012KT 3SM -RA BR SCT004 OVC008
     FM251300 07012KT 2SM -RA BR OVC006
     FM252200 07008KT 3SM -RA BR OVC004=



000
FTUS43 KDLH 242300
TAFHYR
TAF
KHYR 242340Z 2500/2524 00000KT 5SM -RA BR OVC060
     FM250300 08006KT 4SM -RA BR OVC012
     FM250600 09006KT 2SM -RA BR OVC008
     FM251300 10004KT 1 1/2SM -RA BR OVC008
     FM252000 21006KT 3SM -SHRA BR OVC012=



000
FTUS43 KDLH 242300 AAB
TAFHYR
TAF AMD
KHYR 242303Z 2423/2518 14006KT 5SM -RA BKN050 OVC080
     FM250400 08008KT 4SM -RA BR OVC025
     FM250700 07010KT 1 1/2SM RA BR OVC009
     FM251200 05005KT 3SM -RA BR OVC008=



    US Dept of Commerce
    National Oceanic and Atmospheric Administration
    National Weather Service
    1325 East West Highway
    Silver Spring, MD 20910
    Page Author: NWS Internet Services Team
Disclaimer
Information Quality
Credits
Glossary
Privacy Policy
Freedom of Information Act (FOIA)
About Us
Career Opportunities